createdAt,value
2022-08-31T00:00:35.595Z,100641.66
2022-08-31T00:03:22.150Z,100643.22
2022-08-31T00:05:49.998Z,100651.91
2022-08-31T00:08:17.362Z,100651.13
2022-08-31T00:10:46.585Z,100639.53
2022-08-31T00:13:15.183Z,100638.88
2022-08-31T00:15:43.349Z,100638.72
2022-08-31T00:18:10.951Z,100640.00
2022-08-31T00:20:38.775Z,100641.25
2022-08-31T00:23:08.849Z,100640.97
2022-08-31T00:25:40.020Z,100643.34
2022-08-31T00:28:09.631Z,100648.34
2022-08-31T00:30:38.252Z,100655.03
2022-08-31T00:33:06.596Z,100651.13
2022-08-31T00:35:36.626Z,100647.47
2022-08-31T00:38:05.639Z,100649.44
2022-08-31T00:40:44.208Z,100639.66
2022-08-31T00:43:59.984Z,100643.84
2022-08-31T00:46:33.869Z,100636.59
2022-08-31T00:49:13.187Z,100636.75
2022-08-31T00:51:46.018Z,100641.19
2022-08-31T00:54:18.779Z,100635.75
2022-08-31T00:56:46.645Z,100647.44
2022-08-31T00:59:16.366Z,100647.97
2022-08-31T01:01:44.330Z,100647.91
2022-08-31T01:04:12.181Z,100645.72
2022-08-31T01:06:40.378Z,100641.31
2022-08-31T01:09:08.968Z,100647.44
2022-08-31T01:11:38.615Z,100646.38
2022-08-31T01:14:08.347Z,100661.41
2022-08-31T01:16:53.345Z,100654.13
2022-08-31T01:19:32.954Z,100660.50
2022-08-31T01:22:15.681Z,100661.19
2022-08-31T01:24:46.215Z,100665.28
2022-08-31T01:27:18.220Z,100650.47
2022-08-31T01:29:46.938Z,100645.78
2022-08-31T01:32:14.475Z,100648.75
2022-08-31T01:34:42.295Z,100649.56
2022-08-31T01:37:10.733Z,100650.56
2022-08-31T01:39:40.332Z,100652.28
2022-08-31T01:42:07.858Z,100650.34
2022-08-31T01:44:35.356Z,100656.72
2022-08-31T01:47:03.062Z,100651.09
2022-08-31T01:49:30.601Z,100650.63
2022-08-31T01:51:58.079Z,100653.13
2022-08-31T01:54:27.690Z,100655.91
2022-08-31T01:56:56.183Z,100653.13
2022-08-31T01:59:32.197Z,100645.91
2022-08-31T02:02:07.881Z,100639.50
2022-08-31T02:04:37.366Z,100643.56
2022-08-31T02:07:04.879Z,100645.94
2022-08-31T02:09:34.128Z,100636.44
2022-08-31T02:12:01.553Z,100631.75
2022-08-31T02:14:29.169Z,100632.22
2022-08-31T02:16:56.945Z,100633.63
2022-08-31T02:19:24.390Z,100634.19
2022-08-31T02:21:51.798Z,100634.09
2022-08-31T02:24:19.218Z,100642.38
2022-08-31T02:26:49.432Z,100632.44
2022-08-31T02:29:21.763Z,100634.00
2022-08-31T02:31:49.395Z,100637.94
2022-08-31T02:34:17.428Z,100629.00
2022-08-31T02:36:45.592Z,100631.84
2022-08-31T02:39:15.510Z,100627.44
2022-08-31T02:41:44.372Z,100630.28
2022-08-31T02:44:12.057Z,100631.44
2022-08-31T02:46:39.921Z,100622.84
2022-08-31T02:49:26.906Z,100631.63
2022-08-31T02:51:55.133Z,100630.34
2022-08-31T02:54:22.832Z,100624.78
2022-08-31T02:56:52.478Z,100620.75
2022-08-31T02:59:21.082Z,100632.34
2022-08-31T03:01:50.045Z,100627.88
2022-08-31T03:04:18.082Z,100631.78
2022-08-31T03:06:47.955Z,100623.69
2022-08-31T03:09:16.470Z,100643.78
2022-08-31T03:11:44.574Z,100641.56
2022-08-31T03:14:12.593Z,100643.78
2022-08-31T03:16:41.614Z,100645.03
2022-08-31T03:19:10.871Z,100638.75
2022-08-31T03:21:39.061Z,100644.91
2022-08-31T03:24:07.288Z,100639.06
2022-08-31T03:26:35.016Z,100650.03
2022-08-31T03:29:03.696Z,100647.97
2022-08-31T03:31:37.819Z,100645.03
2022-08-31T03:34:05.778Z,100651.59
2022-08-31T03:36:33.936Z,100649.19
2022-08-31T03:39:02.090Z,100655.09
2022-08-31T03:41:30.798Z,100663.63
2022-08-31T03:44:01.838Z,100655.78
2022-08-31T03:46:33.607Z,100660.53
2022-08-31T03:49:04.030Z,100661.63
2022-08-31T03:51:33.447Z,100666.38
2022-08-31T03:54:03.001Z,100662.47
2022-08-31T03:56:33.539Z,100656.06
2022-08-31T03:59:01.200Z,100658.03
2022-08-31T04:01:54.677Z,100661.09
2022-08-31T04:04:52.754Z,100662.75
2022-08-31T04:07:52.906Z,100661.66
2022-08-31T04:10:40.223Z,100663.28
2022-08-31T04:13:30.069Z,100663.84
2022-08-31T04:16:15.075Z,100661.09
2022-08-31T04:19:01.800Z,100662.22
2022-08-31T04:21:34.423Z,100660.25
2022-08-31T04:24:02.606Z,100666.81
2022-08-31T04:26:37.424Z,100670.41
2022-08-31T04:29:12.231Z,100668.59
2022-08-31T04:31:40.954Z,100673.56
2022-08-31T04:34:08.553Z,100678.59
2022-08-31T04:36:37.506Z,100668.13
2022-08-31T04:39:07.478Z,100664.38
2022-08-31T04:41:37.827Z,100671.06
2022-08-31T04:44:06.518Z,100675.50
2022-08-31T04:46:36.756Z,100683.88
2022-08-31T04:49:04.724Z,100677.47
2022-08-31T04:51:34.642Z,100679.09
2022-08-31T04:54:05.386Z,100671.88
2022-08-31T04:56:35.275Z,100674.69
2022-08-31T04:59:08.007Z,100683.44
2022-08-31T05:01:45.392Z,100682.31
2022-08-31T05:04:39.021Z,100694.75
2022-08-31T05:07:06.594Z,100691.09
2022-08-31T05:09:34.259Z,100705.03
2022-08-31T05:12:02.922Z,100698.06
2022-08-31T05:14:30.399Z,100703.94
2022-08-31T05:17:06.318Z,100698.75
2022-08-31T05:19:42.885Z,100694.75
2022-08-31T05:22:12.187Z,100703.16
2022-08-31T05:24:42.161Z,100701.44
2022-08-31T05:27:09.811Z,100706.44
2022-08-31T05:29:37.184Z,100705.72
2022-08-31T05:32:23.184Z,100705.59
2022-08-31T05:34:53.981Z,100702.94
2022-08-31T05:37:21.561Z,100695.16
2022-08-31T05:39:52.186Z,100703.97
2022-08-31T05:42:21.174Z,100702.72
2022-08-31T05:44:48.743Z,100707.31
2022-08-31T05:47:17.052Z,100705.38
2022-08-31T05:49:45.050Z,100704.84
2022-08-31T05:52:17.003Z,100709.59
2022-08-31T05:54:44.689Z,100705.97
2022-08-31T05:57:12.424Z,100702.31
2022-08-31T05:59:40.209Z,100705.41
2022-08-31T06:02:11.210Z,100717.69
2022-08-31T06:04:39.539Z,100719.06
2022-08-31T06:07:07.285Z,100717.81
2022-08-31T06:09:43.826Z,100723.22
2022-08-31T06:12:17.605Z,100716.41
2022-08-31T06:14:47.924Z,100717.66
2022-08-31T06:17:17.659Z,100717.66
2022-08-31T06:19:45.196Z,100717.25
2022-08-31T06:22:12.657Z,100722.41
2022-08-31T06:24:40.059Z,100725.03
2022-08-31T06:27:07.465Z,100728.53
2022-08-31T06:29:37.282Z,100717.34
2022-08-31T06:32:10.146Z,100715.13
2022-08-31T06:34:48.971Z,100719.75
2022-08-31T06:37:35.295Z,100723.69
2022-08-31T06:40:26.941Z,100726.84
2022-08-31T06:43:30.124Z,100713.00
2022-08-31T06:46:00.466Z,100714.22
2022-08-31T06:48:34.507Z,100719.50
2022-08-31T06:51:02.617Z,100712.81
2022-08-31T06:53:30.306Z,100717.84
2022-08-31T06:56:20.936Z,100723.53
2022-08-31T06:59:07.611Z,100714.03
2022-08-31T07:01:53.899Z,100721.81
2022-08-31T07:04:32.614Z,100717.78
2022-08-31T07:07:00.226Z,100720.50
2022-08-31T07:09:28.149Z,100723.13
2022-08-31T07:21:01.426Z,100723.75
2022-08-31T07:23:56.620Z,100714.91
2022-08-31T07:26:46.437Z,100720.88
2022-08-31T07:29:18.575Z,100714.00
2022-08-31T07:31:49.007Z,100723.34
2022-08-31T07:34:27.968Z,100723.63
2022-08-31T07:37:52.460Z,100727.56
2022-08-31T07:40:43.227Z,100728.13
2022-08-31T07:43:13.504Z,100736.97
2022-08-31T07:45:42.152Z,100738.66
2022-08-31T07:48:15.338Z,100731.03
2022-08-31T07:51:17.960Z,100736.31
2022-08-31T07:53:53.627Z,100737.91
2022-08-31T07:56:26.294Z,100744.91
2022-08-31T07:59:11.346Z,100740.59
2022-08-31T08:01:41.295Z,100743.91
2022-08-31T08:04:15.131Z,100747.34
2022-08-31T08:07:05.883Z,100738.91
2022-08-31T08:10:14.264Z,100744.00
2022-08-31T08:13:05.711Z,100745.38
2022-08-31T08:15:46.298Z,100747.38
2022-08-31T08:18:14.037Z,100754.28
2022-08-31T08:20:49.600Z,100751.97
2022-08-31T08:23:27.850Z,100759.22
2022-08-31T08:26:21.696Z,100757.22
2022-08-31T08:29:09.391Z,100755.22
2022-08-31T08:31:43.900Z,100758.13
2022-08-31T08:34:11.514Z,100751.25
2022-08-31T08:36:40.845Z,100750.81
2022-08-31T08:39:10.038Z,100753.59
2022-08-31T08:41:44.227Z,100746.44
2022-08-31T08:44:18.092Z,100756.06
2022-08-31T08:46:52.816Z,100750.28
2022-08-31T08:49:25.310Z,100743.94
2022-08-31T08:51:59.451Z,100747.59
2022-08-31T08:54:35.593Z,100747.59
2022-08-31T08:57:22.471Z,100748.47
2022-08-31T08:59:59.309Z,100744.97
2022-08-31T09:02:49.905Z,100735.28
2022-08-31T09:05:26.117Z,100737.31
2022-08-31T09:08:23.382Z,100733.66
2022-08-31T09:11:28.053Z,100736.28
2022-08-31T09:14:19.103Z,100743.28
2022-08-31T09:17:18.564Z,100763.66
2022-08-31T09:20:02.786Z,100745.66
2022-08-31T09:22:52.491Z,100744.66
2022-08-31T09:25:33.272Z,100741.63
2022-08-31T09:28:49.548Z,100740.25
2022-08-31T09:31:37.248Z,100738.63
2022-08-31T09:34:13.918Z,100721.06
2022-08-31T09:36:43.703Z,100724.59
2022-08-31T09:39:21.633Z,100726.63
2022-08-31T09:41:50.267Z,100722.66
2022-08-31T09:44:34.369Z,100707.66
2022-08-31T09:47:14.873Z,100710.16
2022-08-31T09:49:59.065Z,100701.69
2022-08-31T09:52:47.515Z,100706.50
2022-08-31T09:55:19.795Z,100693.00
2022-08-31T09:58:07.844Z,100698.84
2022-08-31T10:00:42.615Z,100696.34
2022-08-31T10:03:31.057Z,100690.69
2022-08-31T10:06:02.176Z,100674.81
2022-08-31T10:08:57.056Z,100677.16
2022-08-31T10:11:33.637Z,100676.34
2022-08-31T10:14:51.086Z,100673.25
2022-08-31T10:17:26.212Z,100674.66
2022-08-31T10:20:12.785Z,100675.28
2022-08-31T10:22:43.874Z,100671.88
2022-08-31T10:25:18.528Z,100660.03
2022-08-31T10:27:50.478Z,100667.03
2022-08-31T10:30:32.829Z,100660.22
2022-08-31T10:33:22.316Z,100641.59
2022-08-31T10:35:52.186Z,100646.06
2022-08-31T10:38:40.136Z,100630.25
2022-08-31T10:41:26.202Z,100625.66
2022-08-31T10:44:01.672Z,100627.91
2022-08-31T10:46:31.225Z,100626.28
2022-08-31T10:48:59.693Z,100624.06
2022-08-31T10:51:53.208Z,100615.69
2022-08-31T10:54:49.601Z,100617.09
2022-08-31T10:57:56.726Z,100610.88
2022-08-31T11:00:48.881Z,100606.84
2022-08-31T11:03:28.939Z,100605.53
2022-08-31T11:06:02.480Z,100612.06
2022-08-31T11:08:30.302Z,100611.81
2022-08-31T11:10:59.412Z,100612.66
2022-08-31T11:14:00.315Z,100613.00
2022-08-31T11:16:43.686Z,100614.09
2022-08-31T11:19:26.411Z,100616.44
2022-08-31T11:22:02.898Z,100605.88
2022-08-31T11:24:49.194Z,100600.03
2022-08-31T11:27:19.174Z,100610.75
2022-08-31T11:29:59.063Z,100609.34
2022-08-31T11:32:35.950Z,100605.94
2022-08-31T11:35:09.952Z,100602.06
2022-08-31T11:37:52.849Z,100602.69
2022-08-31T11:40:45.005Z,100609.34
2022-08-31T11:43:14.501Z,100598.56
2022-08-31T11:45:43.303Z,100599.00
2022-08-31T11:48:56.665Z,100593.66
2022-08-31T11:51:36.067Z,100592.75
2022-08-31T11:54:14.812Z,100588.22
2022-08-31T11:56:47.468Z,100581.09
2022-08-31T11:59:38.309Z,100571.03
2022-08-31T12:02:24.140Z,100575.38
2022-08-31T12:05:16.328Z,100554.97
2022-08-31T12:07:52.882Z,100568.59
2022-08-31T12:10:56.059Z,100562.19
2022-08-31T12:14:13.532Z,100568.50
2022-08-31T12:16:57.837Z,100588.66
2022-08-31T12:20:01.291Z,100596.28
2022-08-31T12:23:30.069Z,100591.75
2022-08-31T12:30:59.398Z,100580.94
2022-08-31T12:34:00.916Z,100575.53
2022-08-31T12:36:35.916Z,100571.56
2022-08-31T12:39:59.359Z,100577.38
2022-08-31T12:42:37.128Z,100570.41
2022-08-31T12:45:09.355Z,100572.03
2022-08-31T12:48:57.821Z,100567.41
2022-08-31T12:51:42.637Z,100557.56
2022-08-31T12:55:26.962Z,100559.34
2022-08-31T13:03:31.748Z,100534.09
2022-08-31T13:10:26.163Z,100540.44
2022-08-31T13:12:56.579Z,100534.47
2022-08-31T13:15:35.061Z,100533.25
2022-08-31T13:18:15.963Z,100527.56
2022-08-31T13:20:44.911Z,100528.94
2022-08-31T13:23:16.090Z,100522.94
2022-08-31T13:25:48.435Z,100519.63
2022-08-31T13:28:22.216Z,100520.34
2022-08-31T13:31:03.287Z,100521.81
2022-08-31T13:33:32.785Z,100514.28
2022-08-31T13:36:32.246Z,100502.69
2022-08-31T13:39:16.156Z,100498.97
2022-08-31T13:41:57.910Z,100496.19
2022-08-31T13:44:27.833Z,100490.13
2022-08-31T13:47:02.960Z,100490.00
2022-08-31T13:49:35.741Z,100489.84
2022-08-31T13:52:13.954Z,100487.03
2022-08-31T13:54:41.505Z,100484.63
2022-08-31T13:57:35.066Z,100480.41
2022-08-31T14:00:41.927Z,100475.44
2022-08-31T14:03:32.077Z,100463.31
2022-08-31T14:06:24.132Z,100470.72
2022-08-31T14:09:03.417Z,100469.88
2022-08-31T14:11:32.347Z,100466.47
2022-08-31T14:14:11.376Z,100473.13
2022-08-31T14:16:43.669Z,100468.53
2022-08-31T14:19:29.589Z,100484.09
2022-08-31T14:22:15.149Z,100471.47
2022-08-31T14:24:44.155Z,100470.94
2022-08-31T14:27:12.396Z,100463.47
2022-08-31T14:29:42.037Z,100468.84
2022-08-31T14:32:09.430Z,100467.78
2022-08-31T14:34:49.275Z,100463.59
2022-08-31T14:37:22.486Z,100468.03
2022-08-31T14:40:04.304Z,100465.81
2022-08-31T14:42:37.947Z,100459.19
2022-08-31T14:45:12.542Z,100456.97
2022-08-31T14:47:44.149Z,100458.81
2022-08-31T14:50:16.571Z,100468.38
2022-08-31T14:52:52.906Z,100457.75
2022-08-31T14:55:22.605Z,100460.47
2022-08-31T14:58:01.581Z,100457.84
2022-08-31T15:00:43.897Z,100458.81
2022-08-31T15:03:15.044Z,100465.72
2022-08-31T15:05:43.406Z,100464.63
2022-08-31T15:08:11.332Z,100456.19
2022-08-31T15:10:41.111Z,100449.84
2022-08-31T15:13:08.714Z,100448.78
2022-08-31T15:15:36.142Z,100455.06
2022-08-31T15:18:04.439Z,100462.31
2022-08-31T15:20:36.198Z,100458.88
2022-08-31T15:23:04.215Z,100449.72
2022-08-31T15:25:31.699Z,100442.59
2022-08-31T15:27:59.621Z,100447.31
2022-08-31T15:30:28.152Z,100436.63
2022-08-31T15:32:58.861Z,100439.38
2022-08-31T15:35:26.527Z,100436.63
2022-08-31T15:37:58.952Z,100429.34
2022-08-31T15:40:29.066Z,100435.50
2022-08-31T15:42:57.187Z,100434.94
2022-08-31T15:45:29.827Z,100438.13
2022-08-31T15:48:16.990Z,100437.75
2022-08-31T15:50:53.731Z,100435.81
2022-08-31T15:53:30.244Z,100434.47
2022-08-31T15:56:05.700Z,100430.31
2022-08-31T15:58:33.710Z,100437.59
2022-08-31T16:01:01.359Z,100422.16
2022-08-31T16:03:35.296Z,100421.75
2022-08-31T16:06:04.195Z,100418.09
2022-08-31T16:08:31.645Z,100424.53
2022-08-31T16:10:59.117Z,100421.28
2022-08-31T16:13:26.459Z,100424.31
2022-08-31T16:15:53.917Z,100425.22
2022-08-31T16:18:22.324Z,100418.00
2022-08-31T16:20:51.787Z,100419.53
2022-08-31T16:23:21.044Z,100407.19
2022-08-31T16:25:49.460Z,100402.00
2022-08-31T16:28:19.799Z,100408.34
2022-08-31T16:30:47.552Z,100409.19
2022-08-31T16:33:15.004Z,100418.63
2022-08-31T16:35:44.684Z,100420.34
2022-08-31T16:38:13.290Z,100428.13
2022-08-31T16:40:41.790Z,100436.38
2022-08-31T16:43:09.883Z,100444.75
2022-08-31T16:45:41.309Z,100452.59
2022-08-31T16:48:29.665Z,100450.91
2022-08-31T16:50:59.757Z,100452.19
2022-08-31T16:53:28.605Z,100451.91
2022-08-31T16:55:57.615Z,100445.31
2022-08-31T16:58:48.094Z,100445.66
2022-08-31T17:01:15.061Z,100448.66
2022-08-31T17:03:48.160Z,100446.97
2022-08-31T17:06:17.137Z,100447.84
2022-08-31T17:08:45.551Z,100449.66
2022-08-31T17:11:16.789Z,100442.19
2022-08-31T17:13:47.330Z,100448.47
2022-08-31T17:16:21.332Z,100446.97
2022-08-31T17:18:51.528Z,100460.91
2022-08-31T17:21:21.898Z,100456.75
2022-08-31T17:23:51.387Z,100462.53
2022-08-31T17:26:19.450Z,100463.38
2022-08-31T17:28:52.965Z,100468.19
2022-08-31T17:31:20.658Z,100469.19
2022-08-31T17:33:48.020Z,100474.84
2022-08-31T17:36:18.886Z,100482.50
2022-08-31T17:38:49.863Z,100481.25
2022-08-31T17:41:17.690Z,100479.41
2022-08-31T17:45:07.811Z,100465.63
2022-08-31T17:46:53.854Z,100478.28
2022-08-31T17:49:24.145Z,100479.09
2022-08-31T17:51:53.083Z,100485.56
2022-08-31T17:54:23.812Z,100490.59
2022-08-31T17:56:55.979Z,100485.25
2022-08-31T17:59:28.310Z,100480.25
2022-08-31T18:01:58.238Z,100482.91
2022-08-31T18:04:28.286Z,100485.94
2022-08-31T18:06:56.886Z,100482.94
2022-08-31T18:09:27.555Z,100485.94
2022-08-31T18:11:55.618Z,100489.25
2022-08-31T18:14:26.018Z,100484.06
2022-08-31T18:16:55.543Z,100493.91
2022-08-31T18:19:27.968Z,100486.56
2022-08-31T18:21:56.937Z,100490.53
2022-08-31T18:24:24.999Z,100497.88
2022-08-31T18:26:52.997Z,100501.09
2022-08-31T18:29:24.985Z,100502.41
2022-08-31T18:31:56.675Z,100492.72
2022-08-31T18:34:25.669Z,100494.72
2022-08-31T18:36:55.361Z,100492.97
2022-08-31T18:39:50.543Z,100510.81
2022-08-31T18:42:35.781Z,100514.69
2022-08-31T18:45:16.798Z,100510.59
2022-08-31T18:50:49.469Z,100520.22
2022-08-31T18:53:26.832Z,100527.03
2022-08-31T18:55:58.289Z,100522.69
2022-08-31T18:58:28.109Z,100529.91
2022-08-31T19:00:58.299Z,100527.47
2022-08-31T19:03:27.592Z,100532.75
2022-08-31T19:05:56.903Z,100536.22
2022-08-31T19:08:31.256Z,100523.03
2022-08-31T19:11:01.809Z,100538.28
2022-08-31T19:13:32.292Z,100534.81
2022-08-31T19:16:03.599Z,100541.53
2022-08-31T19:18:33.777Z,100547.91
2022-08-31T19:21:25.570Z,100526.19
2022-08-31T19:23:54.038Z,100531.41
2022-08-31T19:26:32.088Z,100542.50
2022-08-31T19:29:00.793Z,100535.47
2022-08-31T19:31:30.174Z,100527.69
2022-08-31T19:33:57.937Z,100551.53
2022-08-31T19:36:29.674Z,100546.53
2022-08-31T19:39:00.315Z,100539.56
2022-08-31T19:41:28.336Z,100522.88
2022-08-31T19:44:09.019Z,100528.44
2022-08-31T19:46:41.960Z,100532.91
2022-08-31T19:49:11.867Z,100534.56
2022-08-31T19:51:42.778Z,100538.59
2022-08-31T19:54:14.635Z,100535.94
2022-08-31T19:56:45.539Z,100539.56
2022-08-31T19:59:20.279Z,100544.97
2022-08-31T20:01:52.345Z,100536.22
2022-08-31T20:04:23.547Z,100544.69
2022-08-31T20:06:52.964Z,100534.81
2022-08-31T20:09:22.555Z,100532.56
2022-08-31T20:11:53.409Z,100521.44
2022-08-31T20:14:22.224Z,100531.72
2022-08-31T20:16:51.637Z,100529.66
2022-08-31T20:19:26.424Z,100532.56
2022-08-31T20:22:00.083Z,100534.56
2022-08-31T20:24:28.345Z,100536.06
2022-08-31T20:27:09.367Z,100524.53
2022-08-31T20:29:39.342Z,100530.94
2022-08-31T20:32:09.414Z,100529.00
2022-08-31T20:34:39.182Z,100537.22
2022-08-31T20:37:10.274Z,100530.38
2022-08-31T20:39:39.721Z,100535.41
2022-08-31T20:42:07.773Z,100536.69
2022-08-31T20:44:37.442Z,100541.56
2022-08-31T20:47:27.561Z,100541.84
2022-08-31T20:49:58.521Z,100555.72
2022-08-31T20:52:29.254Z,100559.09
2022-08-31T20:55:01.932Z,100564.66
2022-08-31T20:57:32.248Z,100558.41
2022-08-31T21:00:03.280Z,100552.97
2022-08-31T21:02:34.367Z,100551.84
2022-08-31T21:05:27.198Z,100557.88
2022-08-31T21:07:52.326Z,100554.63
2022-08-31T21:10:35.641Z,100546.81
2022-08-31T21:13:09.545Z,100560.50
2022-08-31T21:15:46.043Z,100545.16
2022-08-31T21:18:18.123Z,100548.25
2022-08-31T21:20:47.774Z,100540.69
2022-08-31T21:23:15.719Z,100547.13
2022-08-31T21:25:45.728Z,100547.38
2022-08-31T21:28:17.842Z,100545.97
2022-08-31T21:30:49.194Z,100534.13
2022-08-31T21:33:16.908Z,100535.69
2022-08-31T21:35:44.387Z,100533.16
2022-08-31T21:38:13.354Z,100529.53
2022-08-31T21:40:48.031Z,100524.88
2022-08-31T21:43:15.839Z,100529.28
2022-08-31T21:45:43.194Z,100534.00
2022-08-31T21:48:10.845Z,100525.38
2022-08-31T21:50:38.523Z,100528.75
2022-08-31T21:53:05.877Z,100533.47
2022-08-31T21:55:38.518Z,100540.66
2022-08-31T21:58:05.995Z,100533.75
2022-08-31T22:00:34.485Z,100531.78
2022-08-31T22:03:02.250Z,100543.50
2022-08-31T22:05:31.686Z,100543.25
2022-08-31T22:07:59.187Z,100535.44
2022-08-31T22:10:30.000Z,100543.75
2022-08-31T22:12:58.466Z,100539.84
2022-08-31T22:15:26.164Z,100541.84
2022-08-31T22:18:18.052Z,100544.34
2022-08-31T22:20:42.444Z,100528.78
2022-08-31T22:23:10.843Z,100533.78
2022-08-31T22:25:38.604Z,100524.59
2022-08-31T22:28:07.387Z,100525.16
2022-08-31T22:30:36.261Z,100526.25
2022-08-31T22:33:04.381Z,100524.88
2022-08-31T22:35:31.896Z,100530.69
2022-08-31T22:37:59.305Z,100527.91
2022-08-31T22:40:29.679Z,100532.94
2022-08-31T22:42:58.589Z,100537.38
2022-08-31T22:45:26.343Z,100532.38
2022-08-31T22:47:53.962Z,100525.69
2022-08-31T22:50:21.515Z,100521.91
2022-08-31T22:52:48.980Z,100514.81
2022-08-31T22:55:16.609Z,100517.06
2022-08-31T22:57:44.156Z,100510.06
2022-08-31T23:00:12.393Z,100507.19
2022-08-31T23:02:45.224Z,100506.47
2022-08-31T23:05:15.225Z,100503.09
2022-08-31T23:07:43.064Z,100511.22
2022-08-31T23:10:16.928Z,100506.47
2022-08-31T23:12:47.259Z,100498.09
2022-08-31T23:15:15.473Z,100498.94
2022-08-31T23:17:46.262Z,100493.78
2022-08-31T23:20:19.435Z,100501.88
2022-08-31T23:22:48.663Z,100498.28
2022-08-31T23:25:20.327Z,100496.72
2022-08-31T23:27:49.507Z,100492.81
2022-08-31T23:30:19.690Z,100499.78
2022-08-31T23:32:47.942Z,100492.00
2022-08-31T23:35:17.882Z,100493.69
2022-08-31T23:37:46.298Z,100498.09
2022-08-31T23:40:15.710Z,100494.63
2022-08-31T23:42:43.574Z,100493.94
2022-08-31T23:45:12.724Z,100485.31
2022-08-31T23:47:40.720Z,100486.84
2022-08-31T23:50:10.100Z,100490.31
2022-08-31T23:52:41.564Z,100484.88
2022-08-31T23:55:11.082Z,100476.69
2022-08-31T23:57:39.625Z,100479.19
